sensor_id;sensor_type;location;lat;lon;timestamp;temperature;humidity
21676;DHT22;10999;51.332;9.458;2023-04-24T00:01:33;11.10;88.90
21676;DHT22;10999;51.332;9.458;2023-04-24T00:04:00;11.10;88.70
21676;DHT22;10999;51.332;9.458;2023-04-24T00:06:28;11.10;88.80
21676;DHT22;10999;51.332;9.458;2023-04-24T00:09:00;11.10;89.10
21676;DHT22;10999;51.332;9.458;2023-04-24T00:11:27;11.10;88.90
21676;DHT22;10999;51.332;9.458;2023-04-24T00:13:56;11.10;88.80
21676;DHT22;10999;51.332;9.458;2023-04-24T00:16:23;11.10;88.10
21676;DHT22;10999;51.332;9.458;2023-04-24T00:18:50;11.10;86.80
21676;DHT22;10999;51.332;9.458;2023-04-24T00:21:19;11.00;87.10
21676;DHT22;10999;51.332;9.458;2023-04-24T00:23:46;11.00;86.80
21676;DHT22;10999;51.332;9.458;2023-04-24T00:26:13;10.90;87.50
21676;DHT22;10999;51.332;9.458;2023-04-24T00:28:40;10.90;87.40
21676;DHT22;10999;51.332;9.458;2023-04-24T00:31:06;10.80;87.40
21676;DHT22;10999;51.332;9.458;2023-04-24T00:33:33;10.80;87.50
21676;DHT22;10999;51.332;9.458;2023-04-24T00:36:00;10.80;87.80
21676;DHT22;10999;51.332;9.458;2023-04-24T00:38:27;10.80;88.40
21676;DHT22;10999;51.332;9.458;2023-04-24T00:40:53;10.80;88.10
21676;DHT22;10999;51.332;9.458;2023-04-24T00:43:20;10.80;88.60
21676;DHT22;10999;51.332;9.458;2023-04-24T00:45:47;10.80;88.90
21676;DHT22;10999;51.332;9.458;2023-04-24T00:48:14;10.70;89.30
21676;DHT22;10999;51.332;9.458;2023-04-24T00:50:41;10.70;89.70
21676;DHT22;10999;51.332;9.458;2023-04-24T00:53:08;10.70;90.20
21676;DHT22;10999;51.332;9.458;2023-04-24T00:55:35;10.70;90.40
21676;DHT22;10999;51.332;9.458;2023-04-24T00:58:04;10.70;90.80
21676;DHT22;10999;51.332;9.458;2023-04-24T01:00:31;10.70;90.80
21676;DHT22;10999;51.332;9.458;2023-04-24T01:02:59;10.70;90.40
21676;DHT22;10999;51.332;9.458;2023-04-24T01:05:28;10.70;90.60
21676;DHT22;10999;51.332;9.458;2023-04-24T01:07:55;10.60;90.60
21676;DHT22;10999;51.332;9.458;2023-04-24T01:10:23;10.60;90.90
21676;DHT22;10999;51.332;9.458;2023-04-24T01:12:51;10.50;90.90
21676;DHT22;10999;51.332;9.458;2023-04-24T01:15:18;10.60;91.00
21676;DHT22;10999;51.332;9.458;2023-04-24T01:17:44;10.60;91.20
21676;DHT22;10999;51.332;9.458;2023-04-24T01:20:11;10.50;91.00
21676;DHT22;10999;51.332;9.458;2023-04-24T01:22:38;10.50;91.10
21676;DHT22;10999;51.332;9.458;2023-04-24T01:25:05;10.40;91.10
21676;DHT22;10999;51.332;9.458;2023-04-24T01:27:32;10.40;91.40
21676;DHT22;10999;51.332;9.458;2023-04-24T01:29:59;10.40;91.70
21676;DHT22;10999;51.332;9.458;2023-04-24T01:32:26;10.30;91.70
21676;DHT22;10999;51.332;9.458;2023-04-24T01:34:53;10.30;91.90
21676;DHT22;10999;51.332;9.458;2023-04-24T01:37:20;10.40;91.80
21676;DHT22;10999;51.332;9.458;2023-04-24T01:39:47;10.30;91.80
21676;DHT22;10999;51.332;9.458;2023-04-24T01:42:14;10.30;92.00
21676;DHT22;10999;51.332;9.458;2023-04-24T01:44:41;10.40;92.10
21676;DHT22;10999;51.332;9.458;2023-04-24T01:47:08;10.40;92.10
21676;DHT22;10999;51.332;9.458;2023-04-24T01:49:35;10.50;91.90
21676;DHT22;10999;51.332;9.458;2023-04-24T01:52:03;10.50;92.00
21676;DHT22;10999;51.332;9.458;2023-04-24T01:54:30;10.60;91.80
21676;DHT22;10999;51.332;9.458;2023-04-24T01:56:57;10.60;92.00
21676;DHT22;10999;51.332;9.458;2023-04-24T01:59:25;10.60;92.80
21676;DHT22;10999;51.332;9.458;2023-04-24T02:01:52;10.60;92.30
21676;DHT22;10999;51.332;9.458;2023-04-24T02:04:19;10.60;93.00
21676;DHT22;10999;51.332;9.458;2023-04-24T02:06:46;10.60;92.30
21676;DHT22;10999;51.332;9.458;2023-04-24T02:09:12;10.60;92.20
21676;DHT22;10999;51.332;9.458;2023-04-24T02:11:39;10.70;92.40
21676;DHT22;10999;51.332;9.458;2023-04-24T02:14:06;10.70;92.30
21676;DHT22;10999;51.332;9.458;2023-04-24T02:16:32;10.70;92.20
21676;DHT22;10999;51.332;9.458;2023-04-24T02:19:00;10.70;92.40
21676;DHT22;10999;51.332;9.458;2023-04-24T02:21:26;10.80;92.40
21676;DHT22;10999;51.332;9.458;2023-04-24T02:23:54;10.80;92.40
21676;DHT22;10999;51.332;9.458;2023-04-24T02:26:21;10.80;92.20
21676;DHT22;10999;51.332;9.458;2023-04-24T02:28:48;10.80;91.90
21676;DHT22;10999;51.332;9.458;2023-04-24T02:31:15;10.80;91.50
21676;DHT22;10999;51.332;9.458;2023-04-24T02:33:41;10.80;92.40
21676;DHT22;10999;51.332;9.458;2023-04-24T02:36:08;10.80;91.50
21676;DHT22;10999;51.332;9.458;2023-04-24T02:38:35;10.80;91.40
21676;DHT22;10999;51.332;9.458;2023-04-24T02:41:01;10.80;91.30
21676;DHT22;10999;51.332;9.458;2023-04-24T02:43:30;10.80;91.30
21676;DHT22;10999;51.332;9.458;2023-04-24T02:45:57;10.80;90.90
21676;DHT22;10999;51.332;9.458;2023-04-24T02:48:23;10.90;90.60
21676;DHT22;10999;51.332;9.458;2023-04-24T02:50:50;10.90;90.10
21676;DHT22;10999;51.332;9.458;2023-04-24T02:53:17;10.90;89.80
21676;DHT22;10999;51.332;9.458;2023-04-24T02:55:44;10.90;90.00
21676;DHT22;10999;51.332;9.458;2023-04-24T02:58:12;10.90;90.10
21676;DHT22;10999;51.332;9.458;2023-04-24T03:00:39;10.90;89.60
21676;DHT22;10999;51.332;9.458;2023-04-24T03:03:06;10.90;89.50
21676;DHT22;10999;51.332;9.458;2023-04-24T03:05:33;10.90;89.90
21676;DHT22;10999;51.332;9.458;2023-04-24T03:08:00;10.90;89.90
21676;DHT22;10999;51.332;9.458;2023-04-24T03:10:27;10.90;89.90
21676;DHT22;10999;51.332;9.458;2023-04-24T03:12:53;10.90;90.00
21676;DHT22;10999;51.332;9.458;2023-04-24T03:15:21;10.90;89.90
21676;DHT22;10999;51.332;9.458;2023-04-24T03:17:48;10.90;89.40
21676;DHT22;10999;51.332;9.458;2023-04-24T03:20:15;10.90;89.70
21676;DHT22;10999;51.332;9.458;2023-04-24T03:22:42;10.90;89.80
21676;DHT22;10999;51.332;9.458;2023-04-24T03:25:09;10.90;89.80
21676;DHT22;10999;51.332;9.458;2023-04-24T03:27:36;10.80;89.60
21676;DHT22;10999;51.332;9.458;2023-04-24T03:30:03;10.80;90.20
21676;DHT22;10999;51.332;9.458;2023-04-24T03:32:30;10.80;90.20
21676;DHT22;10999;51.332;9.458;2023-04-24T03:34:58;10.80;89.80
21676;DHT22;10999;51.332;9.458;2023-04-24T03:37:25;10.80;90.20
21676;DHT22;10999;51.332;9.458;2023-04-24T03:39:52;10.80;90.30
21676;DHT22;10999;51.332;9.458;2023-04-24T03:42:19;10.80;90.50
21676;DHT22;10999;51.332;9.458;2023-04-24T03:44:46;10.80;91.00
21676;DHT22;10999;51.332;9.458;2023-04-24T03:47:12;10.80;91.10
21676;DHT22;10999;51.332;9.458;2023-04-24T03:49:39;10.80;91.40
21676;DHT22;10999;51.332;9.458;2023-04-24T03:52:06;10.80;91.00
21676;DHT22;10999;51.332;9.458;2023-04-24T03:54:32;10.80;90.10
21676;DHT22;10999;51.332;9.458;2023-04-24T03:56:59;10.80;90.00
21676;DHT22;10999;51.332;9.458;2023-04-24T03:59:26;10.80;90.50
21676;DHT22;10999;51.332;9.458;2023-04-24T04:01:53;10.80;90.30
21676;DHT22;10999;51.332;9.458;2023-04-24T04:04:20;10.80;90.50
21676;DHT22;10999;51.332;9.458;2023-04-24T04:06:47;10.80;90.50
21676;DHT22;10999;51.332;9.458;2023-04-24T04:09:13;10.80;90.30
21676;DHT22;10999;51.332;9.458;2023-04-24T04:11:40;10.80;90.50
21676;DHT22;10999;51.332;9.458;2023-04-24T04:14:07;10.80;90.70
21676;DHT22;10999;51.332;9.458;2023-04-24T04:16:33;10.70;91.00
21676;DHT22;10999;51.332;9.458;2023-04-24T04:19:00;10.80;91.30
21676;DHT22;10999;51.332;9.458;2023-04-24T04:21:27;10.70;92.70
21676;DHT22;10999;51.332;9.458;2023-04-24T04:23:54;10.60;94.00
21676;DHT22;10999;51.332;9.458;2023-04-24T04:26:20;10.60;95.10
21676;DHT22;10999;51.332;9.458;2023-04-24T04:28:47;10.50;96.40
21676;DHT22;10999;51.332;9.458;2023-04-24T04:31:15;10.40;96.10
21676;DHT22;10999;51.332;9.458;2023-04-24T04:33:42;10.40;95.60
21676;DHT22;10999;51.332;9.458;2023-04-24T04:36:09;10.40;95.50
21676;DHT22;10999;51.332;9.458;2023-04-24T04:38:36;10.40;96.00
21676;DHT22;10999;51.332;9.458;2023-04-24T04:41:04;10.40;96.30
21676;DHT22;10999;51.332;9.458;2023-04-24T04:43:30;10.40;96.50
21676;DHT22;10999;51.332;9.458;2023-04-24T04:45:59;10.40;96.50
21676;DHT22;10999;51.332;9.458;2023-04-24T04:48:27;10.40;96.40
21676;DHT22;10999;51.332;9.458;2023-04-24T04:50:55;10.40;96.50
21676;DHT22;10999;51.332;9.458;2023-04-24T04:53:21;10.40;96.50
21676;DHT22;10999;51.332;9.458;2023-04-24T04:55:48;10.50;96.50
21676;DHT22;10999;51.332;9.458;2023-04-24T04:58:15;10.40;95.40
21676;DHT22;10999;51.332;9.458;2023-04-24T05:00:41;10.40;95.40
21676;DHT22;10999;51.332;9.458;2023-04-24T05:03:08;10.50;95.60
21676;DHT22;10999;51.332;9.458;2023-04-24T05:05:47;10.50;94.60
21676;DHT22;10999;51.332;9.458;2023-04-24T05:08:13;10.40;94.70
21676;DHT22;10999;51.332;9.458;2023-04-24T05:10:43;10.50;94.90
21676;DHT22;10999;51.332;9.458;2023-04-24T05:13:11;10.50;94.10
21676;DHT22;10999;51.332;9.458;2023-04-24T05:15:39;10.40;93.60
21676;DHT22;10999;51.332;9.458;2023-04-24T05:18:06;10.50;93.60
21676;DHT22;10999;51.332;9.458;2023-04-24T05:20:33;10.50;93.30
21676;DHT22;10999;51.332;9.458;2023-04-24T05:23:00;10.50;93.40
21676;DHT22;10999;51.332;9.458;2023-04-24T05:25:26;10.50;93.50
21676;DHT22;10999;51.332;9.458;2023-04-24T05:27:53;10.50;92.70
21676;DHT22;10999;51.332;9.458;2023-04-24T05:30:20;10.50;91.90
21676;DHT22;10999;51.332;9.458;2023-04-24T05:32:47;10.40;91.80
21676;DHT22;10999;51.332;9.458;2023-04-24T05:35:13;10.50;92.30
21676;DHT22;10999;51.332;9.458;2023-04-24T05:37:40;10.40;92.60
21676;DHT22;10999;51.332;9.458;2023-04-24T05:40:07;10.40;94.20
21676;DHT22;10999;51.332;9.458;2023-04-24T05:42:35;10.40;95.00
21676;DHT22;10999;51.332;9.458;2023-04-24T05:45:02;10.30;91.50
21676;DHT22;10999;51.332;9.458;2023-04-24T05:47:29;10.20;89.00
21676;DHT22;10999;51.332;9.458;2023-04-24T05:49:55;10.20;87.00
21676;DHT22;10999;51.332;9.458;2023-04-24T05:52:22;10.10;82.10
21676;DHT22;10999;51.332;9.458;2023-04-24T05:54:49;10.10;81.30
21676;DHT22;10999;51.332;9.458;2023-04-24T05:57:15;10.00;83.10
21676;DHT22;10999;51.332;9.458;2023-04-24T05:59:42;10.00;82.30
21676;DHT22;10999;51.332;9.458;2023-04-24T06:02:09;10.00;82.60
21676;DHT22;10999;51.332;9.458;2023-04-24T06:04:36;9.90;79.80
21676;DHT22;10999;51.332;9.458;2023-04-24T06:07:03;9.90;77.20
21676;DHT22;10999;51.332;9.458;2023-04-24T06:09:30;10.10;76.60
21676;DHT22;10999;51.332;9.458;2023-04-24T06:11:57;10.30;77.10
21676;DHT22;10999;51.332;9.458;2023-04-24T06:14:24;10.50;73.40
21676;DHT22;10999;51.332;9.458;2023-04-24T06:16:51;10.80;71.00
21676;DHT22;10999;51.332;9.458;2023-04-24T06:19:24;10.90;67.00
21676;DHT22;10999;51.332;9.458;2023-04-24T06:21:51;11.10;66.20
21676;DHT22;10999;51.332;9.458;2023-04-24T06:24:17;11.30;64.10
21676;DHT22;10999;51.332;9.458;2023-04-24T06:26:44;11.30;61.00
21676;DHT22;10999;51.332;9.458;2023-04-24T06:29:11;11.60;61.10
21676;DHT22;10999;51.332;9.458;2023-04-24T06:31:37;11.70;61.50
21676;DHT22;10999;51.332;9.458;2023-04-24T06:34:04;12.00;57.70
21676;DHT22;10999;51.332;9.458;2023-04-24T06:36:31;12.10;53.30
21676;DHT22;10999;51.332;9.458;2023-04-24T06:39:01;12.30;55.30
21676;DHT22;10999;51.332;9.458;2023-04-24T06:41:28;12.40;53.90
21676;DHT22;10999;51.332;9.458;2023-04-24T06:43:55;12.40;48.70
21676;DHT22;10999;51.332;9.458;2023-04-24T06:46:22;12.20;49.70
21676;DHT22;10999;51.332;9.458;2023-04-24T06:48:53;12.40;52.60
21676;DHT22;10999;51.332;9.458;2023-04-24T06:51:23;12.50;50.00
21676;DHT22;10999;51.332;9.458;2023-04-24T06:53:51;12.70;49.30
21676;DHT22;10999;51.332;9.458;2023-04-24T06:56:18;12.60;46.70
21676;DHT22;10999;51.332;9.458;2023-04-24T06:58:46;12.30;49.30
21676;DHT22;10999;51.332;9.458;2023-04-24T07:01:13;11.80;50.80
21676;DHT22;10999;51.332;9.458;2023-04-24T07:03:39;11.50;52.40
21676;DHT22;10999;51.332;9.458;2023-04-24T07:06:06;11.30;54.20
21676;DHT22;10999;51.332;9.458;2023-04-24T07:08:33;11.20;56.40
21676;DHT22;10999;51.332;9.458;2023-04-24T07:11:00;11.20;57.70
21676;DHT22;10999;51.332;9.458;2023-04-24T07:13:27;11.20;58.80
21676;DHT22;10999;51.332;9.458;2023-04-24T07:15:54;11.20;56.60
21676;DHT22;10999;51.332;9.458;2023-04-24T07:18:21;11.10;57.40
21676;DHT22;10999;51.332;9.458;2023-04-24T07:20:48;11.10;57.20
21676;DHT22;10999;51.332;9.458;2023-04-24T07:23:19;11.20;57.30
21676;DHT22;10999;51.332;9.458;2023-04-24T07:25:46;11.30;59.10
21676;DHT22;10999;51.332;9.458;2023-04-24T07:28:13;11.50;59.00
21676;DHT22;10999;51.332;9.458;2023-04-24T07:30:40;11.60;55.50
21676;DHT22;10999;51.332;9.458;2023-04-24T07:33:06;12.10;51.30
21676;DHT22;10999;51.332;9.458;2023-04-24T07:35:33;12.80;47.60
21676;DHT22;10999;51.332;9.458;2023-04-24T07:38:01;13.10;42.80
21676;DHT22;10999;51.332;9.458;2023-04-24T07:40:27;12.70;43.90
21676;DHT22;10999;51.332;9.458;2023-04-24T07:42:54;12.50;42.90
21676;DHT22;10999;51.332;9.458;2023-04-24T07:45:20;12.80;47.10
21676;DHT22;10999;51.332;9.458;2023-04-24T07:47:50;12.90;39.80
21676;DHT22;10999;51.332;9.458;2023-04-24T07:50:17;13.10;38.80
21676;DHT22;10999;51.332;9.458;2023-04-24T07:52:44;13.30;37.50
21676;DHT22;10999;51.332;9.458;2023-04-24T07:55:11;13.20;38.60
21676;DHT22;10999;51.332;9.458;2023-04-24T07:57:37;13.20;38.10
21676;DHT22;10999;51.332;9.458;2023-04-24T08:00:05;12.90;40.00
21676;DHT22;10999;51.332;9.458;2023-04-24T08:02:33;12.50;38.80
21676;DHT22;10999;51.332;9.458;2023-04-24T08:05:00;12.30;42.90
21676;DHT22;10999;51.332;9.458;2023-04-24T08:07:27;12.00;43.20
21676;DHT22;10999;51.332;9.458;2023-04-24T08:09:54;12.00;46.30
21676;DHT22;10999;51.332;9.458;2023-04-24T08:12:21;11.90;45.10
21676;DHT22;10999;51.332;9.458;2023-04-24T08:14:47;11.80;48.90
21676;DHT22;10999;51.332;9.458;2023-04-24T08:17:14;11.70;46.70
21676;DHT22;10999;51.332;9.458;2023-04-24T08:19:41;11.70;47.50
21676;DHT22;10999;51.332;9.458;2023-04-24T08:22:17;11.70;49.40
21676;DHT22;10999;51.332;9.458;2023-04-24T08:24:43;11.80;48.10
21676;DHT22;10999;51.332;9.458;2023-04-24T08:27:10;11.90;49.50
21676;DHT22;10999;51.332;9.458;2023-04-24T08:29:37;12.30;49.00
21676;DHT22;10999;51.332;9.458;2023-04-24T08:32:04;12.60;43.40
21676;DHT22;10999;51.332;9.458;2023-04-24T08:34:31;12.80;43.50
21676;DHT22;10999;51.332;9.458;2023-04-24T08:36:57;12.60;42.90
21676;DHT22;10999;51.332;9.458;2023-04-24T08:39:24;12.30;41.60
21676;DHT22;10999;51.332;9.458;2023-04-24T08:41:52;12.10;42.80
21676;DHT22;10999;51.332;9.458;2023-04-24T08:44:22;11.90;44.50
21676;DHT22;10999;51.332;9.458;2023-04-24T08:46:49;11.80;45.40
21676;DHT22;10999;51.332;9.458;2023-04-24T08:49:16;11.80;47.20
21676;DHT22;10999;51.332;9.458;2023-04-24T08:51:44;11.80;44.70
21676;DHT22;10999;51.332;9.458;2023-04-24T08:54:12;11.70;45.60
21676;DHT22;10999;51.332;9.458;2023-04-24T08:56:39;11.60;44.70
21676;DHT22;10999;51.332;9.458;2023-04-24T08:59:06;11.60;45.70
21676;DHT22;10999;51.332;9.458;2023-04-24T09:01:34;11.50;45.60
21676;DHT22;10999;51.332;9.458;2023-04-24T09:04:03;11.70;45.60
21676;DHT22;10999;51.332;9.458;2023-04-24T09:06:31;11.90;44.50
21676;DHT22;10999;51.332;9.458;2023-04-24T09:09:02;12.00;45.00
21676;DHT22;10999;51.332;9.458;2023-04-24T09:11:31;12.00;44.50
21676;DHT22;10999;51.332;9.458;2023-04-24T09:13:59;12.00;45.30
21676;DHT22;10999;51.332;9.458;2023-04-24T09:16:27;11.90;45.10
21676;DHT22;10999;51.332;9.458;2023-04-24T09:18:55;11.90;47.10
21676;DHT22;10999;51.332;9.458;2023-04-24T09:21:22;11.90;45.20
21676;DHT22;10999;51.332;9.458;2023-04-24T09:24:06;11.80;43.80
21676;DHT22;10999;51.332;9.458;2023-04-24T09:26:36;11.80;45.00
21676;DHT22;10999;51.332;9.458;2023-04-24T09:29:04;11.90;44.80
21676;DHT22;10999;51.332;9.458;2023-04-24T09:31:31;11.90;44.50
21676;DHT22;10999;51.332;9.458;2023-04-24T09:34:03;12.00;45.00
21676;DHT22;10999;51.332;9.458;2023-04-24T09:36:39;12.40;46.30
21676;DHT22;10999;51.332;9.458;2023-04-24T09:39:09;12.90;44.50
21676;DHT22;10999;51.332;9.458;2023-04-24T09:41:54;12.90;39.40
21676;DHT22;10999;51.332;9.458;2023-04-24T09:44:26;12.70;39.20
21676;DHT22;10999;51.332;9.458;2023-04-24T09:46:57;12.50;40.10
21676;DHT22;10999;51.332;9.458;2023-04-24T09:49:28;12.30;42.50
21676;DHT22;10999;51.332;9.458;2023-04-24T09:52:10;12.20;43.70
21676;DHT22;10999;51.332;9.458;2023-04-24T09:54:38;12.00;42.70
21676;DHT22;10999;51.332;9.458;2023-04-24T09:57:07;11.90;42.50
21676;DHT22;10999;51.332;9.458;2023-04-24T09:59:34;11.80;44.70
21676;DHT22;10999;51.332;9.458;2023-04-24T10:02:03;11.80;46.50
21676;DHT22;10999;51.332;9.458;2023-04-24T10:04:54;11.80;44.10
21676;DHT22;10999;51.332;9.458;2023-04-24T10:07:25;11.90;44.80
21676;DHT22;10999;51.332;9.458;2023-04-24T10:09:52;12.00;43.50
21676;DHT22;10999;51.332;9.458;2023-04-24T10:12:19;12.10;40.20
21676;DHT22;10999;51.332;9.458;2023-04-24T10:14:48;12.20;41.60
21676;DHT22;10999;51.332;9.458;2023-04-24T10:17:15;12.40;42.40
21676;DHT22;10999;51.332;9.458;2023-04-24T10:19:43;12.50;41.90
21676;DHT22;10999;51.332;9.458;2023-04-24T10:22:10;12.50;43.80
21676;DHT22;10999;51.332;9.458;2023-04-24T10:24:38;12.40;44.50
21676;DHT22;10999;51.332;9.458;2023-04-24T10:27:05;12.50;45.40
21676;DHT22;10999;51.332;9.458;2023-04-24T10:29:35;12.40;44.40
21676;DHT22;10999;51.332;9.458;2023-04-24T10:32:02;12.40;44.60
21676;DHT22;10999;51.332;9.458;2023-04-24T10:34:29;12.30;48.30
21676;DHT22;10999;51.332;9.458;2023-04-24T10:36:56;12.20;50.30
21676;DHT22;10999;51.332;9.458;2023-04-24T10:39:24;12.20;50.80
21676;DHT22;10999;51.332;9.458;2023-04-24T10:41:54;12.20;54.60
21676;DHT22;10999;51.332;9.458;2023-04-24T10:44:24;12.30;59.40
21676;DHT22;10999;51.332;9.458;2023-04-24T10:46:55;12.40;58.10
21676;DHT22;10999;51.332;9.458;2023-04-24T10:49:31;12.40;56.40
21676;DHT22;10999;51.332;9.458;2023-04-24T10:52:03;12.20;54.40
21676;DHT22;10999;51.332;9.458;2023-04-24T10:59:51;12.10;59.50
21676;DHT22;10999;51.332;9.458;2023-04-24T11:02:19;11.70;62.00
21676;DHT22;10999;51.332;9.458;2023-04-24T11:05:05;11.40;66.70
21676;DHT22;10999;51.332;9.458;2023-04-24T11:11:16;10.90;74.90
21676;DHT22;10999;51.332;9.458;2023-04-24T11:19:01;11.40;71.70
21676;DHT22;10999;51.332;9.458;2023-04-24T11:21:48;11.40;74.60
21676;DHT22;10999;51.332;9.458;2023-04-24T11:24:31;11.30;76.30
21676;DHT22;10999;51.332;9.458;2023-04-24T11:29:59;11.10;65.00
21676;DHT22;10999;51.332;9.458;2023-04-24T11:32:34;11.20;62.60
21676;DHT22;10999;51.332;9.458;2023-04-24T11:35:20;11.10;58.00
21676;DHT22;10999;51.332;9.458;2023-04-24T11:37:52;11.10;60.60
21676;DHT22;10999;51.332;9.458;2023-04-24T11:40:22;11.10;61.90
21676;DHT22;10999;51.332;9.458;2023-04-24T11:42:51;11.30;63.10
21676;DHT22;10999;51.332;9.458;2023-04-24T11:45:23;11.30;60.30
21676;DHT22;10999;51.332;9.458;2023-04-24T11:47:50;11.00;56.80
21676;DHT22;10999;51.332;9.458;2023-04-24T11:50:19;11.00;59.40
21676;DHT22;10999;51.332;9.458;2023-04-24T11:52:47;11.10;57.70
21676;DHT22;10999;51.332;9.458;2023-04-24T11:57:45;11.10;52.80
21676;DHT22;10999;51.332;9.458;2023-04-24T12:00:17;11.00;53.80
21676;DHT22;10999;51.332;9.458;2023-04-24T12:02:45;10.90;52.90
21676;DHT22;10999;51.332;9.458;2023-04-24T12:05:24;11.10;54.30
21676;DHT22;10999;51.332;9.458;2023-04-24T12:07:52;11.00;51.70
21676;DHT22;10999;51.332;9.458;2023-04-24T12:10:27;10.90;51.80
21676;DHT22;10999;51.332;9.458;2023-04-24T12:12:56;10.90;54.40
21676;DHT22;10999;51.332;9.458;2023-04-24T12:15:23;10.80;54.70
21676;DHT22;10999;51.332;9.458;2023-04-24T12:17:52;11.00;55.10
21676;DHT22;10999;51.332;9.458;2023-04-24T12:20:28;11.10;54.50
21676;DHT22;10999;51.332;9.458;2023-04-24T12:23:00;11.30;57.70
21676;DHT22;10999;51.332;9.458;2023-04-24T12:25:33;11.40;54.10
21676;DHT22;10999;51.332;9.458;2023-04-24T12:30:33;11.40;50.90
21676;DHT22;10999;51.332;9.458;2023-04-24T12:33:01;11.50;53.90
21676;DHT22;10999;51.332;9.458;2023-04-24T12:35:30;11.90;53.80
21676;DHT22;10999;51.332;9.458;2023-04-24T12:38:15;12.00;49.50
21676;DHT22;10999;51.332;9.458;2023-04-24T12:40:43;11.90;50.60
21676;DHT22;10999;51.332;9.458;2023-04-24T12:43:20;11.90;49.80
21676;DHT22;10999;51.332;9.458;2023-04-24T12:45:48;12.10;51.60
21676;DHT22;10999;51.332;9.458;2023-04-24T12:48:14;12.10;49.30
21676;DHT22;10999;51.332;9.458;2023-04-24T12:50:42;11.70;49.70
21676;DHT22;10999;51.332;9.458;2023-04-24T12:53:12;11.60;53.70
21676;DHT22;10999;51.332;9.458;2023-04-24T12:55:39;11.60;54.80
21676;DHT22;10999;51.332;9.458;2023-04-24T12:58:06;11.60;54.00
21676;DHT22;10999;51.332;9.458;2023-04-24T13:00:33;11.50;55.30
21676;DHT22;10999;51.332;9.458;2023-04-24T13:03:00;11.60;55.70
21676;DHT22;10999;51.332;9.458;2023-04-24T13:05:28;11.60;50.70
21676;DHT22;10999;51.332;9.458;2023-04-24T13:07:54;11.50;51.50
21676;DHT22;10999;51.332;9.458;2023-04-24T13:10:21;11.40;48.90
21676;DHT22;10999;51.332;9.458;2023-04-24T13:12:48;11.40;49.60
21676;DHT22;10999;51.332;9.458;2023-04-24T13:15:15;11.40;48.40
21676;DHT22;10999;51.332;9.458;2023-04-24T13:17:41;11.40;48.40
21676;DHT22;10999;51.332;9.458;2023-04-24T13:20:09;11.60;48.70
21676;DHT22;10999;51.332;9.458;2023-04-24T13:22:36;11.80;47.30
21676;DHT22;10999;51.332;9.458;2023-04-24T13:25:03;11.90;45.90
21676;DHT22;10999;51.332;9.458;2023-04-24T13:27:33;11.90;44.80
21676;DHT22;10999;51.332;9.458;2023-04-24T13:29:59;11.70;42.30
21676;DHT22;10999;51.332;9.458;2023-04-24T13:32:26;11.60;44.00
21676;DHT22;10999;51.332;9.458;2023-04-24T13:34:55;11.60;45.40
21676;DHT22;10999;51.332;9.458;2023-04-24T13:37:22;11.40;45.70
21676;DHT22;10999;51.332;9.458;2023-04-24T13:39:49;11.50;46.60
21676;DHT22;10999;51.332;9.458;2023-04-24T13:42:17;11.50;45.40
21676;DHT22;10999;51.332;9.458;2023-04-24T13:44:45;11.50;46.60
21676;DHT22;10999;51.332;9.458;2023-04-24T13:47:12;11.50;46.50
21676;DHT22;10999;51.332;9.458;2023-04-24T13:49:38;11.50;48.70
21676;DHT22;10999;51.332;9.458;2023-04-24T13:52:05;11.70;46.30
21676;DHT22;10999;51.332;9.458;2023-04-24T13:54:32;11.70;46.80
21676;DHT22;10999;51.332;9.458;2023-04-24T13:56:59;11.60;46.10
21676;DHT22;10999;51.332;9.458;2023-04-24T13:59:27;11.40;46.20
21676;DHT22;10999;51.332;9.458;2023-04-24T14:01:53;11.20;47.60
21676;DHT22;10999;51.332;9.458;2023-04-24T14:04:21;11.20;48.60
21676;DHT22;10999;51.332;9.458;2023-04-24T14:06:48;11.20;50.30
21676;DHT22;10999;51.332;9.458;2023-04-24T14:09:15;11.20;49.80
21676;DHT22;10999;51.332;9.458;2023-04-24T14:11:41;11.10;49.20
21676;DHT22;10999;51.332;9.458;2023-04-24T14:14:08;11.10;51.90
21676;DHT22;10999;51.332;9.458;2023-04-24T14:16:35;11.00;51.90
21676;DHT22;10999;51.332;9.458;2023-04-24T14:19:02;11.00;54.60
21676;DHT22;10999;51.332;9.458;2023-04-24T14:21:29;11.00;55.30
21676;DHT22;10999;51.332;9.458;2023-04-24T14:23:56;11.00;55.90
21676;DHT22;10999;51.332;9.458;2023-04-24T14:26:23;10.90;55.20
21676;DHT22;10999;51.332;9.458;2023-04-24T14:28:51;11.00;54.80
21676;DHT22;10999;51.332;9.458;2023-04-24T14:31:23;11.10;55.40
21676;DHT22;10999;51.332;9.458;2023-04-24T14:33:50;11.10;53.80
21676;DHT22;10999;51.332;9.458;2023-04-24T14:36:17;11.20;52.00
21676;DHT22;10999;51.332;9.458;2023-04-24T14:38:44;11.10;50.60
21676;DHT22;10999;51.332;9.458;2023-04-24T14:41:11;11.20;52.10
21676;DHT22;10999;51.332;9.458;2023-04-24T14:43:39;11.30;51.90
21676;DHT22;10999;51.332;9.458;2023-04-24T14:46:07;11.50;48.00
21676;DHT22;10999;51.332;9.458;2023-04-24T14:48:33;11.70;48.40
21676;DHT22;10999;51.332;9.458;2023-04-24T14:51:00;11.90;45.80
21676;DHT22;10999;51.332;9.458;2023-04-24T14:53:27;12.00;45.80
21676;DHT22;10999;51.332;9.458;2023-04-24T14:55:53;12.20;46.50
21676;DHT22;10999;51.332;9.458;2023-04-24T14:58:20;12.20;45.00
21676;DHT22;10999;51.332;9.458;2023-04-24T15:00:47;12.20;43.80
21676;DHT22;10999;51.332;9.458;2023-04-24T15:03:16;12.10;41.10
21676;DHT22;10999;51.332;9.458;2023-04-24T15:05:44;12.20;43.00
21676;DHT22;10999;51.332;9.458;2023-04-24T15:08:11;12.30;42.20
21676;DHT22;10999;51.332;9.458;2023-04-24T15:10:38;12.70;44.40
21676;DHT22;10999;51.332;9.458;2023-04-24T15:13:05;13.10;42.70
21676;DHT22;10999;51.332;9.458;2023-04-24T15:15:31;13.30;39.60
21676;DHT22;10999;51.332;9.458;2023-04-24T15:17:58;13.10;36.40
21676;DHT22;10999;51.332;9.458;2023-04-24T15:20:25;13.00;37.30
21676;DHT22;10999;51.332;9.458;2023-04-24T15:22:51;12.80;38.90
21676;DHT22;10999;51.332;9.458;2023-04-24T15:25:18;12.50;37.30
21676;DHT22;10999;51.332;9.458;2023-04-24T15:27:45;12.30;38.40
21676;DHT22;10999;51.332;9.458;2023-04-24T15:30:13;12.10;39.30
21676;DHT22;10999;51.332;9.458;2023-04-24T15:32:40;11.80;41.30
21676;DHT22;10999;51.332;9.458;2023-04-24T15:35:07;11.60;46.00
21676;DHT22;10999;51.332;9.458;2023-04-24T15:37:36;11.50;51.00
21676;DHT22;10999;51.332;9.458;2023-04-24T15:40:04;11.60;47.60
21676;DHT22;10999;51.332;9.458;2023-04-24T15:42:33;11.80;45.10
21676;DHT22;10999;51.332;9.458;2023-04-24T15:44:59;11.90;43.50
21676;DHT22;10999;51.332;9.458;2023-04-24T15:47:26;12.00;41.90
21676;DHT22;10999;51.332;9.458;2023-04-24T15:49:53;12.10;40.90
21676;DHT22;10999;51.332;9.458;2023-04-24T15:52:20;12.00;39.60
21676;DHT22;10999;51.332;9.458;2023-04-24T15:54:47;11.90;40.30
21676;DHT22;10999;51.332;9.458;2023-04-24T15:57:14;11.90;40.80